Time;durP1;ratioP1;P1;durP2;ratioP2;P2;SDS_P1;SDS_P2;PMS_P1;PMS_P2;Temp;Humidity;BMP_temperature;BMP_pressure;BME280_temperature;BME280_humidity;BME280_pressure;Samples;Min_cycle;Max_cycle;Signal;HPM_P1;HPM_P2
2023/08/26 00:00:51;;;;;;;9.47;4.80;;;;;;;25.35;78.18;99764.34;5104831;28;20197;-65
2023/08/26 00:03:16;;;;;;;13.10;4.90;;;;;;;25.36;78.06;99768.03;5108118;28;20801;-65
2023/08/26 00:05:43;;;;;;;9.57;5.27;;;;;;;25.37;77.74;99767.59;5095795;28;20174;-64
2023/08/26 00:08:08;;;;;;;10.67;4.50;;;;;;;25.37;77.79;99773.38;5086981;28;20242;-65
2023/08/26 00:10:34;;;;;;;10.63;5.17;;;;;;;25.39;78.40;99785.28;5105833;28;20430;-66
2023/08/26 00:12:59;;;;;;;7.40;4.13;;;;;;;25.37;78.02;99790.72;5089929;28;20174;-65
2023/08/26 00:15:25;;;;;;;8.57;4.50;;;;;;;25.40;78.20;99794.78;5090556;28;20163;-64
2023/08/26 00:17:50;;;;;;;12.00;4.90;;;;;;;25.39;77.52;99799.75;5093364;28;20189;-65
2023/08/26 00:20:16;;;;;;;9.53;4.50;;;;;;;25.40;77.29;99795.63;5098344;27;20244;-65
2023/08/26 00:22:41;;;;;;;18.33;5.47;;;;;;;25.39;77.71;99796.84;5113474;27;20595;-66
2023/08/26 00:25:07;;;;;;;11.40;4.07;;;;;;;25.40;77.85;99794.78;5092332;28;20423;-65
2023/08/26 00:27:33;;;;;;;8.97;4.60;;;;;;;25.35;77.89;99792.41;5092205;28;20174;-65
2023/08/26 00:29:58;;;;;;;6.40;4.13;;;;;;;25.35;77.74;99789.53;5094442;28;20856;-65
2023/08/26 00:32:24;;;;;;;7.63;4.73;;;;;;;25.31;77.92;99792.47;5088335;28;20577;-65
2023/08/26 00:34:49;;;;;;;7.40;4.10;;;;;;;25.29;78.55;99797.06;5108226;28;20189;-66
2023/08/26 00:37:15;;;;;;;7.33;4.40;;;;;;;25.33;77.91;99801.50;5112196;27;20186;-65
2023/08/26 00:39:40;;;;;;;7.03;4.53;;;;;;;25.36;78.03;99797.75;5091212;28;20206;-65
2023/08/26 00:42:06;;;;;;;8.53;4.00;;;;;;;25.37;77.49;99796.50;5118491;27;20216;-65
2023/08/26 00:44:31;;;;;;;8.30;3.87;;;;;;;25.35;78.16;99804.81;5104816;28;20173;-64
2023/08/26 00:46:57;;;;;;;6.40;4.47;;;;;;;25.37;77.88;99818.78;5111375;28;20180;-65
2023/08/26 00:49:22;;;;;;;8.40;4.67;;;;;;;25.37;77.92;99828.28;5109218;28;20200;-65
2023/08/26 00:51:48;;;;;;;8.70;4.77;;;;;;;25.37;77.60;99824.56;5108933;28;20209;-65
2023/08/26 00:54:13;;;;;;;6.30;4.40;;;;;;;25.37;77.58;99819.63;5111704;28;20182;-65
2023/08/26 00:56:39;;;;;;;5.50;3.63;;;;;;;25.38;78.06;99820.44;5101349;28;20182;-65
2023/08/26 00:59:04;;;;;;;10.10;4.50;;;;;;;25.39;77.82;99833.63;5073131;28;20201;-66
2023/08/26 01:01:31;;;;;;;8.83;4.90;;;;;;;25.38;77.76;99838.59;5093709;28;20189;-66
2023/08/26 01:03:56;;;;;;;7.20;3.87;;;;;;;25.38;77.69;99841.47;5091442;28;20257;-66
2023/08/26 01:06:22;;;;;;;9.90;4.07;;;;;;;25.27;77.67;99846.63;5073235;28;20417;-65
2023/08/26 01:08:47;;;;;;;6.83;3.80;;;;;;;25.29;78.20;99841.22;5093430;28;20206;-65
2023/08/26 01:11:13;;;;;;;8.13;4.20;;;;;;;25.34;77.91;99852.28;5090737;28;20166;-65
2023/08/26 01:13:45;;;;;;;9.47;3.83;;;;;;;25.35;77.38;99845.25;5093229;28;20182;-65
2023/08/26 01:16:11;;;;;;;10.80;4.53;;;;;;;25.36;77.41;99838.22;5090113;28;20423;-66
2023/08/26 01:18:36;;;;;;;5.60;3.97;;;;;;;25.36;77.45;99840.28;5072890;28;20793;-65
2023/08/26 01:21:02;;;;;;;9.03;3.90;;;;;;;25.37;77.34;99833.25;5090916;28;20323;-65
2023/08/26 01:23:42;;;;;;;7.83;3.87;;;;;;;25.36;77.70;99828.72;5095454;27;20826;-65
2023/08/26 01:26:08;;;;;;;6.77;3.67;;;;;;;25.35;76.92;99836.59;5099058;27;20527;-66
2023/08/26 01:28:33;;;;;;;8.43;3.07;;;;;;;25.34;77.52;99842.81;5071228;28;20574;-66
2023/08/26 01:31:01;;;;;;;5.63;3.63;;;;;;;25.34;77.14;99842.81;5093120;28;20225;-65
2023/08/26 01:33:28;;;;;;;7.40;4.00;;;;;;;25.33;77.33;99841.19;5089736;28;20219;-65
2023/08/26 01:35:57;;;;;;;6.33;3.53;;;;;;;25.33;77.25;99844.06;5076271;28;20511;-65
2023/08/26 01:38:22;;;;;;;7.10;3.80;;;;;;;25.32;77.17;99851.91;5093073;28;20446;-64
2023/08/26 01:40:53;;;;;;;7.97;3.43;;;;;;;25.31;77.09;99850.28;5101266;28;20456;-66
2023/08/26 01:43:19;;;;;;;5.73;3.80;;;;;;;25.32;76.97;99857.69;5090738;28;20251;-66
2023/08/26 01:45:44;;;;;;;8.00;3.80;;;;;;;25.31;77.27;99844.50;5058486;28;20424;-65
2023/08/26 01:48:10;;;;;;;7.00;3.80;;;;;;;25.32;76.69;99843.25;5090893;28;20174;-65
2023/08/26 01:50:35;;;;;;;6.07;3.50;;;;;;;25.32;77.19;99853.97;5090500;28;20549;-66
2023/08/26 01:53:00;;;;;;;6.97;4.03;;;;;;;25.32;77.02;99857.69;5092835;28;20186;-65
2023/08/26 01:55:26;;;;;;;6.00;3.70;;;;;;;25.32;76.70;99868.41;5101674;28;20166;-66
2023/08/26 01:57:51;;;;;;;10.93;3.50;;;;;;;25.31;77.00;99870.50;5106818;28;20173;-65
2023/08/26 02:00:17;;;;;;;12.50;4.83;;;;;;;25.33;76.97;99867.97;5090065;28;20190;-66
2023/08/26 02:02:42;;;;;;;6.60;3.53;;;;;;;25.32;77.07;99866.34;5107410;28;20235;-66
2023/08/26 02:05:08;;;;;;;6.77;3.40;;;;;;;25.33;77.02;99870.06;5099407;27;20181;-65
2023/08/26 02:07:33;;;;;;;8.23;3.50;;;;;;;25.33;76.35;99862.19;5130413;27;20514;-66
2023/08/26 02:09:59;;;;;;;6.80;3.30;;;;;;;25.31;76.82;99873.41;5118154;27;20166;-66
2023/08/26 02:12:24;;;;;;;7.10;3.40;;;;;;;25.31;76.37;99882.06;5089052;28;20185;-66
2023/08/26 02:14:50;;;;;;;8.97;3.93;;;;;;;25.32;76.19;99863.47;5091057;28;20196;-64
2023/08/26 02:17:15;;;;;;;4.63;3.40;;;;;;;25.31;76.39;99861.84;5124527;27;20218;-65
2023/08/26 02:19:40;;;;;;;6.70;3.73;;;;;;;25.32;76.46;99859.75;5109502;27;20205;-65
2023/08/26 02:22:06;;;;;;;5.63;3.37;;;;;;;25.33;75.98;99858.50;5113746;27;20223;-64
2023/08/26 02:24:31;;;;;;;6.17;3.53;;;;;;;25.33;75.97;99864.28;5089066;28;20197;-65
2023/08/26 02:26:57;;;;;;;6.80;3.60;;;;;;;25.32;76.27;99871.31;5089664;28;20208;-66
2023/08/26 02:29:22;;;;;;;6.97;3.40;;;;;;;25.34;76.50;99877.47;5091801;28;20229;-66
2023/08/26 02:31:47;;;;;;;6.80;3.50;;;;;;;25.33;76.05;99876.66;5104063;27;20170;-65
2023/08/26 02:34:13;;;;;;;6.40;3.30;;;;;;;25.33;76.14;99870.06;5112643;27;20170;-65
2023/08/26 02:36:38;;;;;;;6.67;3.93;;;;;;;25.32;76.27;99880.81;5087405;28;20162;-65
2023/08/26 02:39:04;;;;;;;6.67;3.43;;;;;;;25.32;76.15;99883.69;5069831;28;20171;-63
2023/08/26 02:41:29;;;;;;;7.63;4.03;;;;;;;25.32;76.26;99879.97;5090452;28;20584;-66
2023/08/26 02:43:55;;;;;;;7.60;3.17;;;;;;;25.32;75.98;99892.38;5096838;28;20182;-65
2023/08/26 02:46:20;;;;;;;6.97;3.73;;;;;;;25.33;76.18;99891.09;5088490;28;20166;-64
2023/08/26 02:48:46;;;;;;;7.93;3.70;;;;;;;25.31;76.49;99887.84;5090695;28;20200;-65
2023/08/26 02:51:11;;;;;;;8.80;4.00;;;;;;;25.31;76.46;99887.84;5105331;28;20519;-64
2023/08/26 02:53:37;;;;;;;7.20;4.27;;;;;;;25.31;75.81;99892.81;5110672;28;20192;-66
2023/08/26 02:56:02;;;;;;;10.53;3.90;;;;;;;25.31;75.92;99893.63;5098608;28;20173;-65
2023/08/26 02:58:27;;;;;;;9.90;4.00;;;;;;;25.28;75.69;99897.38;5108788;28;20178;-66
2023/08/26 03:00:55;;;;;;;5.20;3.70;;;;;;;25.28;75.69;99890.81;5105003;28;20196;-65
2023/08/26 03:03:20;;;;;;;7.23;3.77;;;;;;;25.28;75.74;99900.28;5088640;28;20527;-65
2023/08/26 03:05:46;;;;;;;6.03;3.63;;;;;;;25.28;75.56;99902.38;5088515;28;20520;-65
2023/08/26 03:08:11;;;;;;;5.00;3.30;;;;;;;25.28;75.75;99905.25;5090408;28;20186;-65
2023/08/26 03:10:37;;;;;;;8.63;3.70;;;;;;;25.28;75.50;99902.38;5089913;28;20178;-65
2023/08/26 03:13:02;;;;;;;5.53;3.90;;;;;;;25.28;75.53;99913.91;5102249;28;20618;-65
2023/08/26 03:15:28;;;;;;;8.97;3.90;;;;;;;25.27;75.61;99912.25;5087079;28;20784;-65
2023/08/26 03:17:55;;;;;;;6.30;3.87;;;;;;;25.27;75.14;99910.19;5087041;28;20174;-64
2023/08/26 03:20:20;;;;;;;12.40;3.83;;;;;;;25.27;75.06;99912.25;5087464;28;20456;-65
2023/08/26 03:22:45;;;;;;;11.80;3.83;;;;;;;25.24;75.44;99905.25;5092783;28;21369;-66
2023/08/26 03:25:11;;;;;;;7.87;3.50;;;;;;;25.24;75.08;99911.03;5107903;28;20994;-66
2023/08/26 03:27:36;;;;;;;6.37;3.50;;;;;;;25.17;75.50;99921.88;5101520;28;20628;-65
2023/08/26 03:30:02;;;;;;;7.20;3.40;;;;;;;25.19;74.89;99923.06;5106887;28;20660;-64
2023/08/26 03:32:28;;;;;;;8.10;3.60;;;;;;;25.15;74.46;99931.00;5093057;28;20190;-66
2023/08/26 03:34:53;;;;;;;8.80;3.97;;;;;;;25.14;74.48;99914.09;5098876;28;20182;-66
2023/08/26 03:37:18;;;;;;;6.10;3.80;;;;;;;25.12;74.05;99926.09;5106368;28;20186;-66
2023/08/26 03:39:44;;;;;;;9.33;4.40;;;;;;;25.14;73.43;99917.78;5100064;28;20198;-66
2023/08/26 03:42:09;;;;;;;7.53;3.17;;;;;;;25.11;73.87;99914.94;5100409;28;20556;-66
2023/08/26 03:44:36;;;;;;;7.70;3.33;;;;;;;25.09;73.45;99906.72;5088625;28;20237;-66
2023/08/26 03:47:02;;;;;;;7.07;3.93;;;;;;;25.12;72.76;99917.41;5087565;28;20265;-66
2023/08/26 03:49:27;;;;;;;6.33;3.63;;;;;;;25.13;72.81;99916.16;5089884;28;20543;-66
2023/08/26 03:51:52;;;;;;;8.33;3.70;;;;;;;25.12;72.85;99928.13;5107538;28;20181;-65
2023/08/26 03:54:18;;;;;;;9.63;3.77;;;;;;;25.13;72.13;99924.03;5107912;28;20177;-65
2023/08/26 03:56:43;;;;;;;11.37;3.93;;;;;;;25.11;72.69;99936.00;5089691;28;20182;-62
2023/08/26 03:59:09;;;;;;;5.70;3.50;;;;;;;25.11;72.19;99933.13;5090518;28;20269;-66
2023/08/26 04:01:35;;;;;;;9.13;3.90;;;;;;;25.11;71.91;99936.00;5095581;28;20242;-66
2023/08/26 04:04:00;;;;;;;6.27;3.60;;;;;;;25.12;72.09;99934.75;5095288;28;20182;-66
2023/08/26 04:06:26;;;;;;;8.03;3.40;;;;;;;25.13;71.97;99941.34;5100267;28;20956;-65
2023/08/26 04:08:51;;;;;;;13.67;4.00;;;;;;;25.13;72.13;99936.38;5104638;28;20177;-66
2023/08/26 04:11:17;;;;;;;7.33;3.90;;;;;;;25.12;72.00;99931.88;5099873;28;20177;-65
2023/08/26 04:13:43;;;;;;;10.37;3.70;;;;;;;25.13;71.47;99942.16;5108571;28;20687;-66
2023/08/26 04:16:08;;;;;;;10.50;4.10;;;;;;;25.13;71.48;99942.16;5110878;28;20241;-66
2023/08/26 04:18:34;;;;;;;9.60;3.60;;;;;;;25.12;71.55;99933.91;5104861;28;20190;-66
2023/08/26 04:20:59;;;;;;;6.20;3.10;;;;;;;25.13;71.58;99924.03;5103279;28;20579;-66
2023/08/26 04:23:25;;;;;;;6.33;3.03;;;;;;;25.11;71.14;99941.78;5108242;28;20219;-65
2023/08/26 04:25:52;;;;;;;6.77;3.40;;;;;;;25.12;71.27;99946.31;5107926;28;20188;-66
2023/08/26 04:28:17;;;;;;;7.37;3.47;;;;;;;25.09;70.88;99947.16;5092918;28;20661;-65
2023/08/26 04:30:44;;;;;;;7.10;3.70;;;;;;;25.03;71.24;99948.91;5088799;28;20427;-66
2023/08/26 04:33:10;;;;;;;5.73;3.10;;;;;;;25.04;70.27;99950.53;5099488;28;20265;-66
2023/08/26 04:35:36;;;;;;;5.63;3.10;;;;;;;25.02;70.69;99953.06;5088779;28;20428;-64
2023/08/26 04:38:01;;;;;;;6.50;3.47;;;;;;;25.01;69.78;99960.09;5091506;28;20175;-63
2023/08/26 04:40:27;;;;;;;7.97;3.33;;;;;;;25.00;70.04;99958.47;5086830;28;20256;-65
2023/08/26 04:42:53;;;;;;;5.97;3.53;;;;;;;25.00;69.42;99960.50;5094837;28;20909;-66
2023/08/26 04:45:19;;;;;;;14.40;3.83;;;;;;;25.00;69.49;99967.13;5100813;28;20191;-65
2023/08/26 04:47:46;;;;;;;7.83;3.37;;;;;;;24.98;69.20;99969.59;5083578;28;20439;-65
2023/08/26 04:50:12;;;;;;;6.07;2.90;;;;;;;24.96;68.85;99957.69;5086526;28;20449;-65
2023/08/26 04:52:39;;;;;;;6.70;3.67;;;;;;;24.97;69.42;99958.47;5089791;28;20428;-66
2023/08/26 04:55:06;;;;;;;8.77;4.30;;;;;;;24.96;68.59;99972.13;5086965;28;20174;-65
2023/08/26 04:57:31;;;;;;;5.83;3.27;;;;;;;24.97;69.12;99962.19;5103879;28;20443;-65
2023/08/26 04:59:57;;;;;;;7.27;3.57;;;;;;;24.97;69.33;99962.19;5095265;28;20823;-65
2023/08/26 05:02:22;;;;;;;6.00;3.20;;;;;;;24.99;69.16;99962.56;5099292;28;20197;-65
2023/08/26 05:04:48;;;;;;;7.77;3.33;;;;;;;24.99;68.67;99982.78;5101876;28;20224;-64
2023/08/26 05:07:13;;;;;;;6.50;3.37;;;;;;;24.96;69.01;99975.00;5091881;28;20630;-65
2023/08/26 05:09:39;;;;;;;8.13;3.87;;;;;;;24.96;68.73;99969.22;5091785;28;20175;-65
2023/08/26 05:12:05;;;;;;;8.50;3.10;;;;;;;24.99;69.08;99976.22;5091107;28;20178;-65
2023/08/26 05:14:30;;;;;;;7.00;3.60;;;;;;;24.99;70.00;99977.00;5091007;28;20187;-65
2023/08/26 05:16:56;;;;;;;15.40;3.73;;;;;;;24.99;69.13;99982.00;5092537;28;20448;-66
2023/08/26 05:19:21;;;;;;;5.70;3.70;;;;;;;24.97;68.90;99982.41;5090232;28;20213;-66
2023/08/26 05:21:46;;;;;;;12.53;4.13;;;;;;;24.96;68.94;99977.91;5093755;28;20236;-63
2023/08/26 05:24:12;;;;;;;6.00;3.30;;;;;;;24.97;69.57;99985.31;5109517;28;20182;-65
2023/08/26 05:26:37;;;;;;;8.43;3.13;;;;;;;25.00;69.54;99972.91;5094140;28;20182;-64
2023/08/26 05:29:04;;;;;;;4.10;3.07;;;;;;;25.01;69.50;99970.81;5089946;28;20247;-65
2023/08/26 05:31:29;;;;;;;9.60;3.50;;;;;;;25.02;69.83;99979.06;5091431;28;20703;-65
2023/08/26 05:33:55;;;;;;;10.23;3.70;;;;;;;25.03;69.74;99980.69;5090310;28;20420;-66
2023/08/26 05:36:21;;;;;;;6.10;2.80;;;;;;;25.03;69.17;99980.69;5090929;28;20193;-66
2023/08/26 05:38:46;;;;;;;9.47;3.27;;;;;;;25.05;70.24;99983.97;5092771;28;20425;-66
2023/08/26 05:41:12;;;;;;;5.80;3.17;;;;;;;25.04;69.72;99990.97;5090745;28;20717;-66
2023/08/26 05:43:38;;;;;;;6.20;3.40;;;;;;;25.04;69.65;100011.19;5092961;28;20190;-66
2023/08/26 05:46:03;;;;;;;13.93;3.67;;;;;;;25.02;69.52;100005.06;5090545;28;20420;-65
2023/08/26 05:48:29;;;;;;;9.50;3.57;;;;;;;25.02;70.14;100013.72;5091173;28;20186;-64
2023/08/26 05:50:58;;;;;;;8.23;3.50;;;;;;;25.02;70.21;100019.50;5108837;28;20178;-65
2023/08/26 05:53:23;;;;;;;5.80;2.90;;;;;;;25.02;69.65;100010.81;5110004;28;20174;-66
2023/08/26 05:55:49;;;;;;;8.13;3.23;;;;;;;25.03;70.51;100008.78;5097569;28;20497;-65
2023/08/26 05:58:14;;;;;;;5.10;3.20;;;;;;;25.03;70.12;100005.88;5089742;28;20186;-66
2023/08/26 06:00:40;;;;;;;7.10;3.40;;;;;;;25.04;70.36;100007.50;5090251;28;20255;-64
2023/08/26 06:03:05;;;;;;;6.03;2.90;;;;;;;25.04;70.31;100019.06;5089168;28;20178;-65
2023/08/26 06:05:31;;;;;;;4.67;3.10;;;;;;;25.04;70.35;100021.97;5126111;27;20181;-65
2023/08/26 06:07:56;;;;;;;6.67;3.20;;;;;;;25.03;70.14;100023.22;5095791;28;20605;-66
2023/08/26 06:10:23;;;;;;;8.37;3.17;;;;;;;25.02;70.01;100019.50;5103738;28;20180;-66
2023/08/26 06:12:48;;;;;;;9.40;3.20;;;;;;;25.02;70.02;100015.78;5109665;28;20178;-65
2023/08/26 06:15:14;;;;;;;8.10;3.27;;;;;;;25.02;70.20;100007.09;5107710;28;20410;-65
2023/08/26 06:17:41;;;;;;;8.30;3.03;;;;;;;25.02;69.80;100007.94;5106317;27;20507;-63
2023/08/26 06:20:08;;;;;;;5.90;3.07;;;;;;;25.02;70.22;100012.88;5130683;27;20272;-65
2023/08/26 06:22:33;;;;;;;8.67;3.10;;;;;;;25.01;70.21;100014.13;5108897;27;20868;-66
2023/08/26 06:24:59;;;;;;;6.77;3.13;;;;;;;24.99;69.50;100016.66;5074898;28;20427;-65
2023/08/26 06:27:25;;;;;;;6.33;3.23;;;;;;;24.98;69.76;100021.59;5090760;28;20197;-64
2023/08/26 06:29:54;;;;;;;8.00;3.03;;;;;;;24.97;68.55;100022.03;5094198;28;20175;-65
2023/08/26 06:32:22;;;;;;;5.37;2.90;;;;;;;24.94;69.02;100025.81;5104243;28;20857;-65
2023/08/26 06:34:48;;;;;;;6.40;2.77;;;;;;;24.92;68.76;100034.88;5100175;28;20870;-66
2023/08/26 06:37:14;;;;;;;5.73;2.97;;;;;;;24.92;68.17;100045.63;5108647;28;20411;-65
2023/08/26 06:39:39;;;;;;;7.97;3.40;;;;;;;24.92;68.30;100048.50;5102570;28;20211;-66
2023/08/26 06:42:05;;;;;;;5.90;3.30;;;;;;;24.91;67.92;100055.53;5093877;28;20202;-67
2023/08/26 06:44:30;;;;;;;5.80;3.40;;;;;;;24.89;68.21;100053.06;5089104;27;20190;-65
2023/08/26 06:46:56;;;;;;;6.60;2.87;;;;;;;24.91;68.29;100046.88;5090074;28;20182;-66
2023/08/26 06:49:21;;;;;;;7.43;3.07;;;;;;;24.91;68.52;100047.69;5089240;28;20199;-66
2023/08/26 06:51:47;;;;;;;7.40;2.63;;;;;;;24.93;68.63;100044.38;5087518;28;20527;-64
2023/08/26 06:54:12;;;;;;;10.13;3.30;;;;;;;24.94;68.56;100040.25;5087487;28;20536;-66
2023/08/26 06:56:37;;;;;;;7.60;3.03;;;;;;;24.94;68.15;100029.47;5104306;28;20553;-65
2023/08/26 06:59:03;;;;;;;7.90;3.00;;;;;;;24.94;68.78;100038.16;5090463;28;20185;-67
2023/08/26 07:01:29;;;;;;;5.83;2.50;;;;;;;24.93;68.38;100033.63;5077331;28;20177;-66
2023/08/26 07:04:08;;;;;;;6.37;2.80;;;;;;;24.93;68.82;100036.53;5072097;28;20185;-66
2023/08/26 07:06:34;;;;;;;7.73;2.80;;;;;;;24.91;68.19;100033.25;5106762;28;21084;-67
2023/08/26 07:08:59;;;;;;;10.20;3.10;;;;;;;24.92;68.60;100040.66;5105161;27;20442;-67
2023/08/26 07:11:25;;;;;;;4.13;2.80;;;;;;;24.92;68.48;100039.84;5088296;28;20166;-66
2023/08/26 07:13:51;;;;;;;7.07;2.77;;;;;;;24.92;68.52;100029.13;5088324;28;20163;-66
2023/08/26 07:16:16;;;;;;;6.07;2.87;;;;;;;24.93;68.93;100035.72;5090570;28;20712;-66
2023/08/26 07:18:42;;;;;;;5.90;3.43;;;;;;;24.93;68.72;100044.38;5088789;28;20174;-66
2023/08/26 07:21:07;;;;;;;4.47;2.67;;;;;;;24.94;68.53;100040.25;5093205;28;20225;-66
2023/08/26 07:23:33;;;;;;;6.80;2.90;;;;;;;24.93;68.58;100033.63;5109010;28;20211;-67
2023/08/26 07:25:58;;;;;;;8.60;2.90;;;;;;;24.94;68.00;100034.47;5121150;27;20644;-66
2023/08/26 07:28:24;;;;;;;4.67;2.77;;;;;;;24.93;67.97;100013.41;5125619;27;20169;-66
2023/08/26 07:30:50;;;;;;;4.63;2.57;;;;;;;24.94;67.84;100003.50;5090711;28;20182;-66
2023/08/26 07:33:16;;;;;;;7.80;3.03;;;;;;;24.95;68.56;99999.38;5088727;28;20166;-67
2023/08/26 07:35:42;;;;;;;6.87;3.07;;;;;;;24.94;68.75;100003.50;5097612;28;20443;-66
2023/08/26 07:38:07;;;;;;;5.30;2.90;;;;;;;24.96;68.41;100005.94;5108971;28;20282;-66
2023/08/26 07:40:32;;;;;;;4.40;2.67;;;;;;;24.97;68.03;100013.38;5108266;28;20205;-67
2023/08/26 07:42:58;;;;;;;4.57;2.50;;;;;;;24.94;68.42;100009.28;5108805;28;20256;-66
2023/08/26 07:45:24;;;;;;;5.47;2.67;;;;;;;24.93;67.92;100019.19;5092883;28;20182;-66
2023/08/26 07:47:49;;;;;;;5.10;2.47;;;;;;;24.91;68.04;100010.16;5087442;28;20182;-67
2023/08/26 07:50:15;;;;;;;5.43;2.20;;;;;;;24.93;67.59;100018.38;5087221;28;20198;-67
2023/08/26 07:52:40;;;;;;;3.70;2.03;;;;;;;24.94;67.27;99999.81;5096544;28;20534;-65
2023/08/26 07:55:06;;;;;;;7.73;2.33;;;;;;;24.92;66.89;99996.50;5098939;28;20186;-68
2023/08/26 07:57:32;;;;;;;5.10;2.60;;;;;;;24.90;66.29;100004.81;5087170;28;21008;-66
2023/08/26 07:59:57;;;;;;;3.80;2.00;;;;;;;24.89;65.34;100011.84;5090626;28;20202;-68
2023/08/26 08:02:22;;;;;;;5.13;3.03;;;;;;;24.82;64.15;100015.63;5104761;28;20189;-66
2023/08/26 08:04:48;;;;;;;5.07;2.10;;;;;;;24.84;64.58;100018.88;5096556;28;20181;-67
2023/08/26 08:07:13;;;;;;;6.30;2.63;;;;;;;24.80;62.72;100021.03;5100405;28;20192;-66
2023/08/26 08:09:39;;;;;;;12.00;2.13;;;;;;;24.50;60.16;100018.03;5102134;28;20181;-62
2023/08/26 08:12:05;;;;;;;7.20;3.00;;;;;;;24.25;62.53;100023.22;5108911;28;20617;-68
2023/08/26 08:14:30;;;;;;;6.63;2.30;;;;;;;24.50;61.21;100020.91;5111558;28;20196;-66
2023/08/26 08:16:56;;;;;;;5.90;2.70;;;;;;;24.65;61.20;100025.31;5103101;28;20190;-66
2023/08/26 08:19:22;;;;;;;5.97;2.17;;;;;;;24.71;61.95;100020.72;5088340;28;20174;-67
2023/08/26 08:21:48;;;;;;;3.97;2.60;;;;;;;24.76;61.97;100023.13;5094069;28;20787;-66
2023/08/26 08:24:13;;;;;;;3.13;1.60;;;;;;;24.76;62.43;100023.13;5094203;28;20465;-67
2023/08/26 08:26:43;;;;;;;9.87;2.43;;;;;;;24.69;61.12;100008.75;5090996;28;20182;-67
2023/08/26 08:29:09;;;;;;;7.43;2.40;;;;;;;24.71;62.04;100008.31;5087012;28;20159;-64
2023/08/26 08:31:35;;;;;;;7.03;2.30;;;;;;;24.72;62.25;100019.44;5089440;28;20460;-64
2023/08/26 08:34:03;;;;;;;3.57;2.00;;;;;;;24.74;61.97;100016.94;5089105;28;20980;-65
2023/08/26 08:36:29;;;;;;;9.37;2.33;;;;;;;24.16;61.74;100019.19;5095684;27;20926;-65
2023/08/26 08:38:54;;;;;;;6.50;2.30;;;;;;;24.49;62.18;100024.22;5109686;28;20431;-65
2023/08/26 08:41:19;;;;;;;3.73;1.80;;;;;;;24.59;61.42;100023.31;5101103;27;20605;-65
2023/08/26 08:43:46;;;;;;;4.00;1.80;;;;;;;24.61;59.89;100024.53;5086345;28;20543;-66
2023/08/26 08:46:13;;;;;;;4.77;2.17;;;;;;;24.63;60.62;100021.22;5110855;28;20220;-66
2023/08/26 08:48:38;;;;;;;3.97;2.30;;;;;;;24.62;60.44;100029.06;5089648;27;20453;-65
2023/08/26 08:51:04;;;;;;;6.07;1.90;;;;;;;24.54;59.62;100033.22;5086576;28;20420;-65
2023/08/26 08:53:32;;;;;;;5.27;2.07;;;;;;;24.53;59.53;100033.66;5055804;28;20178;-66
2023/08/26 08:56:00;;;;;;;8.57;2.00;;;;;;;24.41;59.76;100035.00;5093852;28;20213;-67
2023/08/26 08:58:26;;;;;;;4.97;2.10;;;;;;;24.50;58.75;100028.75;5091496;28;20405;-66
2023/08/26 09:00:52;;;;;;;6.60;1.70;;;;;;;24.22;59.54;100024.06;5067556;28;20881;-65
2023/08/26 09:03:17;;;;;;;5.90;2.10;;;;;;;24.45;59.50;100034.97;5079286;28;20648;-65
2023/08/26 09:05:43;;;;;;;3.70;1.87;;;;;;;24.53;59.90;100022.91;5083896;28;20185;-66
2023/08/26 09:08:08;;;;;;;2.97;1.50;;;;;;;24.57;60.21;100017.94;5092542;28;20178;-65
2023/08/26 09:10:33;;;;;;;3.30;1.80;;;;;;;24.60;60.72;100017.13;5096341;27;20173;-64
2023/08/26 09:12:59;;;;;;;5.20;2.30;;;;;;;24.62;60.65;100013.78;5092703;28;20178;-65
2023/08/26 09:15:26;;;;;;;5.70;2.03;;;;;;;24.62;60.47;100020.38;5090315;28;20177;-66
2023/08/26 09:17:56;;;;;;;3.77;1.80;;;;;;;24.64;60.97;100025.75;5072845;27;20659;-66
2023/08/26 09:20:21;;;;;;;3.00;1.80;;;;;;;23.95;59.40;100002.91;5131147;27;20442;-66
2023/08/26 09:22:47;;;;;;;3.53;1.87;;;;;;;24.12;60.38;99992.41;5112705;27;20752;-65
2023/08/26 09:25:12;;;;;;;4.50;1.77;;;;;;;24.29;59.99;100005.88;5092012;28;22484;-65
2023/08/26 09:27:42;;;;;;;6.50;1.83;;;;;;;24.04;59.89;100011.84;5090898;28;20185;-64
2023/08/26 09:30:08;;;;;;;13.43;2.00;;;;;;;24.23;58.94;99996.03;5111432;28;20231;-63
2023/08/26 09:32:37;;;;;;;4.27;2.00;;;;;;;24.24;58.29;100006.34;5107392;28;20438;-65
2023/08/26 09:35:16;;;;;;;5.13;1.90;;;;;;;24.34;58.54;100003.31;5107271;28;20481;-66
2023/08/26 09:37:42;;;;;;;2.70;1.80;;;;;;;24.41;58.05;99996.66;5110210;28;20871;-65
2023/08/26 09:40:14;;;;;;;4.90;2.63;;;;;;;24.46;58.42;99999.91;5107427;28;21327;-65
2023/08/26 09:42:40;;;;;;;4.23;1.80;;;;;;;24.43;58.37;100005.75;5107388;28;20579;-66
2023/08/26 09:45:07;;;;;;;5.63;1.67;;;;;;;24.43;57.74;99999.97;5107386;28;20419;-64
2023/08/26 09:47:39;;;;;;;5.83;1.67;;;;;;;24.49;58.11;100009.78;5104714;28;21191;-66
2023/08/26 09:50:05;;;;;;;3.03;1.57;;;;;;;24.51;58.87;100013.88;5109386;28;20478;-65
2023/08/26 09:52:46;;;;;;;4.73;2.00;;;;;;;24.50;58.75;100012.25;5082271;28;20872;-65
2023/08/26 09:55:12;;;;;;;5.80;1.60;;;;;;;24.50;59.12;100005.66;5092608;28;20515;-66
2023/08/26 09:57:38;;;;;;;8.87;2.40;;;;;;;24.48;58.48;100003.19;5101289;28;20892;-65
2023/08/26 10:00:04;;;;;;;8.30;1.80;;;;;;;24.46;58.71;100005.69;5077567;28;20202;-66
2023/08/26 10:02:30;;;;;;;7.70;2.30;;;;;;;24.49;57.89;100009.78;5090191;28;20643;-66
2023/08/26 10:04:56;;;;;;;8.50;2.50;;;;;;;24.53;58.93;100002.72;5100338;27;20612;-66
2023/08/26 10:07:24;;;;;;;8.20;2.27;;;;;;;24.55;59.17;100011.78;5071892;28;20235;-65
2023/08/26 10:09:57;;;;;;;7.53;2.13;;;;;;;24.57;59.42;100012.16;5122278;27;20180;-66
2023/08/26 10:12:29;;;;;;;9.70;2.30;;;;;;;24.56;58.93;100004.75;5075576;28;20432;-65
2023/08/26 10:14:54;;;;;;;9.33;2.43;;;;;;;24.59;58.31;100008.88;5090425;28;20876;-68
2023/08/26 10:17:20;;;;;;;7.43;1.83;;;;;;;24.58;59.62;100005.16;5092369;28;20447;-65
2023/08/26 10:19:46;;;;;;;6.57;1.90;;;;;;;24.58;59.47;100005.16;5092282;28;20194;-66
2023/08/26 10:22:12;;;;;;;6.50;2.00;;;;;;;24.56;59.23;100004.75;5083115;28;21433;-66
2023/08/26 10:24:38;;;;;;;3.50;1.50;;;;;;;24.58;59.46;99996.50;5081812;28;20182;-66
2023/08/26 10:27:07;;;;;;;5.30;1.47;;;;;;;24.59;59.35;100009.69;5071330;28;20198;-65
2023/08/26 10:29:32;;;;;;;6.80;2.10;;;;;;;24.60;60.37;100016.28;5088445;27;20520;-66
2023/08/26 10:32:17;;;;;;;8.57;1.63;;;;;;;24.59;60.66;100026.22;5094393;27;20398;-65
2023/08/26 10:34:55;;;;;;;5.50;1.87;;;;;;;24.61;60.12;100023.69;5085375;28;20186;-66
2023/08/26 10:37:31;;;;;;;4.47;1.87;;;;;;;24.61;60.03;100024.53;5109041;28;20411;-66
2023/08/26 10:39:57;;;;;;;9.73;1.73;;;;;;;24.61;61.03;100033.19;5102955;27;20451;-66
2023/08/26 10:42:23;;;;;;;3.83;1.43;;;;;;;24.61;60.85;100036.06;5072764;28;21008;-65
2023/08/26 10:44:55;;;;;;;4.67;2.00;;;;;;;24.62;61.13;100031.09;5090718;28;20609;-66
2023/08/26 10:47:37;;;;;;;6.40;2.10;;;;;;;24.63;61.01;100027.00;5091118;27;20443;-66
2023/08/26 10:50:22;;;;;;;5.20;1.90;;;;;;;24.62;60.76;100031.09;5109816;28;21264;-66
2023/08/26 10:53:13;;;;;;;5.70;2.30;;;;;;;24.64;59.73;100028.63;5091593;28;20504;-65
2023/08/26 10:55:38;;;;;;;3.40;1.40;;;;;;;24.63;61.33;100021.22;5080637;28;20454;-66
2023/08/26 10:58:07;;;;;;;3.60;1.70;;;;;;;24.63;61.54;100018.34;5094899;28;20444;-66
2023/08/26 11:00:33;;;;;;;4.93;1.73;;;;;;;24.62;61.26;100022.44;5109969;28;20251;-66
2023/08/26 11:02:59;;;;;;;6.97;1.83;;;;;;;24.61;61.49;100030.31;5109687;28;20424;-66
2023/08/26 11:05:24;;;;;;;3.97;1.60;;;;;;;24.63;61.89;100033.56;5109241;28;21285;-66
2023/08/26 11:07:50;;;;;;;5.63;2.47;;;;;;;24.62;61.14;100023.28;5097055;28;20489;-65
2023/08/26 11:10:31;;;;;;;4.20;1.60;;;;;;;24.62;61.56;100023.28;5088548;28;20527;-64
2023/08/26 11:12:57;;;;;;;4.93;1.87;;;;;;;24.62;61.47;100016.66;5098023;28;20193;-65
2023/08/26 11:15:22;;;;;;;5.43;1.80;;;;;;;24.62;60.83;100016.66;5090486;28;20532;-63
2023/08/26 11:17:48;;;;;;;4.73;1.77;;;;;;;24.62;60.79;100020.38;5086697;28;20178;-66
2023/08/26 11:20:17;;;;;;;5.77;2.10;;;;;;;24.64;60.99;100012.09;5088715;28;20198;-65
2023/08/26 11:22:43;;;;;;;4.73;2.27;;;;;;;24.64;61.69;100006.31;5095985;28;20951;-66
2023/08/26 11:25:15;;;;;;;4.60;1.93;;;;;;;24.63;61.16;100004.69;5108956;28;20701;-66